KMHR/MHR METAR and TAF weather

Enter ICAO airport designator
Station Type Date Time Source
KMHR METAR 2021/05/14 22:45 UTC NOAA

KMHR 142245Z 19008KT 10SM SCT250 28/09 A2979


Station Type Date Time Source
KMHR Decoded METAR 2021/05/14 22:45 UTC NOAA

Sacramento, Sacramento Mather Airport, CA, United States (KMHR) 38-33N 121-18W
May 14, 2021 - 06:45 PM EDT / 2021.05.14 2245 UTC
Wind: from the S (190 degrees) at 9 MPH (8 KT):0
Visibility: 10 mile(s):0
Sky conditions: partly cloudy
Temperature: 82 F (28 C)
Dew Point: 48 F (9 C)
Relative Humidity: 30%
Pressure (altimeter): 29.79 in. Hg (1008 hPa)
ob: KMHR 142245Z 19008KT 10SM SCT250 28/09 A2979
cycle: 23

Station Type Date Time Source
KMHR TAF 2021/05/14 18:39 UTC NOAA

KMHR 141735Z 1418/1518 19007KT P6SM FEW250
FM142200 19012G20KT P6SM SCT250
FM151000 16010KT P6SM BKN100

Example: see airport list